Berkeley Heights, New Jersey
Current Conditions -  °F | °C
As of 7:45 AM on Wednesday 22 Oct 2014 (Local Time) from KMMU Reporting Station
Light Rain Light Rain  
Wind Chill: 55°   Ceiling: 800
Heat Index: 55°   Visibility: 2.5mi
Dew Point: 55°   Wind: 10mph
Humidity: 100%   Direction: 30°NNE
Pressure: 29.93"   Gusts: 16mph
Location:  40.68°N, 74.44°W
Report Text: KMMU 221145Z 03009G14KT 2 1/2SM -RA BR OVC008 13/13 A2993
Loading
Personal Weather Stations






























Interactive Weather Map
Tropical Storm Tracking
New forecast layout! Learn more

10-Day Weather Forecast

Advertisements
Track Severe Weather on mobile